sensor_id;sensor_type;location;lat;lon;timestamp;P1;durP1;ratioP1;P2;durP2;ratioP2
15616;SDS011;7908;51.688;7.130;2023-05-10T00:00:49;18.80;;;10.67;;
15616;SDS011;7908;51.688;7.130;2023-05-10T00:03:17;17.90;;;11.00;;
15616;SDS011;7908;51.688;7.130;2023-05-10T00:05:46;22.80;;;11.67;;
15616;SDS011;7908;51.688;7.130;2023-05-10T00:08:16;18.57;;;11.23;;
15616;SDS011;7908;51.688;7.130;2023-05-10T00:10:45;19.50;;;11.13;;
15616;SDS011;7908;51.688;7.130;2023-05-10T00:13:13;21.67;;;12.20;;
15616;SDS011;7908;51.688;7.130;2023-05-10T00:15:42;21.07;;;12.20;;
15616;SDS011;7908;51.688;7.130;2023-05-10T00:18:11;24.50;;;12.93;;
15616;SDS011;7908;51.688;7.130;2023-05-10T00:20:40;28.17;;;14.17;;
15616;SDS011;7908;51.688;7.130;2023-05-10T00:23:08;22.60;;;12.80;;
15616;SDS011;7908;51.688;7.130;2023-05-10T00:25:38;26.07;;;13.80;;
15616;SDS011;7908;51.688;7.130;2023-05-10T00:28:07;30.87;;;14.20;;
15616;SDS011;7908;51.688;7.130;2023-05-10T00:30:35;26.27;;;13.13;;
15616;SDS011;7908;51.688;7.130;2023-05-10T00:33:04;24.90;;;12.63;;
15616;SDS011;7908;51.688;7.130;2023-05-10T00:35:33;28.43;;;13.10;;
15616;SDS011;7908;51.688;7.130;2023-05-10T00:38:01;28.20;;;13.50;;
15616;SDS011;7908;51.688;7.130;2023-05-10T00:40:30;27.43;;;13.70;;
15616;SDS011;7908;51.688;7.130;2023-05-10T00:43:00;24.13;;;13.23;;
15616;SDS011;7908;51.688;7.130;2023-05-10T00:45:29;26.83;;;13.87;;
15616;SDS011;7908;51.688;7.130;2023-05-10T00:47:59;29.30;;;15.17;;
15616;SDS011;7908;51.688;7.130;2023-05-10T00:50:30;26.10;;;14.63;;
15616;SDS011;7908;51.688;7.130;2023-05-10T00:52:59;27.30;;;14.17;;
15616;SDS011;7908;51.688;7.130;2023-05-10T00:55:28;29.93;;;14.50;;
15616;SDS011;7908;51.688;7.130;2023-05-10T00:57:57;31.97;;;15.20;;
15616;SDS011;7908;51.688;7.130;2023-05-10T01:00:28;34.20;;;16.33;;
15616;SDS011;7908;51.688;7.130;2023-05-10T01:02:56;29.13;;;14.57;;
15616;SDS011;7908;51.688;7.130;2023-05-10T01:05:26;26.40;;;13.10;;
15616;SDS011;7908;51.688;7.130;2023-05-10T01:07:55;26.10;;;12.23;;
15616;SDS011;7908;51.688;7.130;2023-05-10T01:10:24;29.67;;;13.37;;
15616;SDS011;7908;51.688;7.130;2023-05-10T01:12:53;24.00;;;12.17;;
15616;SDS011;7908;51.688;7.130;2023-05-10T01:15:23;21.50;;;10.03;;
15616;SDS011;7908;51.688;7.130;2023-05-10T01:17:52;18.30;;;9.30;;
15616;SDS011;7908;51.688;7.130;2023-05-10T01:20:22;15.37;;;8.87;;
15616;SDS011;7908;51.688;7.130;2023-05-10T01:25:58;17.70;;;8.47;;
15616;SDS011;7908;51.688;7.130;2023-05-10T01:28:58;14.90;;;8.07;;
15616;SDS011;7908;51.688;7.130;2023-05-10T01:32:04;14.37;;;7.70;;
15616;SDS011;7908;51.688;7.130;2023-05-10T01:34:54;16.07;;;8.30;;
15616;SDS011;7908;51.688;7.130;2023-05-10T01:37:39;16.80;;;8.50;;
15616;SDS011;7908;51.688;7.130;2023-05-10T01:40:14;15.53;;;7.80;;
15616;SDS011;7908;51.688;7.130;2023-05-10T01:42:51;12.80;;;6.97;;
15616;SDS011;7908;51.688;7.130;2023-05-10T01:45:28;12.47;;;6.50;;
15616;SDS011;7908;51.688;7.130;2023-05-10T01:48:03;9.63;;;6.40;;
15616;SDS011;7908;51.688;7.130;2023-05-10T01:50:35;10.07;;;5.77;;
15616;SDS011;7908;51.688;7.130;2023-05-10T01:53:06;12.10;;;5.63;;
15616;SDS011;7908;51.688;7.130;2023-05-10T01:55:39;10.87;;;6.33;;
15616;SDS011;7908;51.688;7.130;2023-05-10T01:58:13;10.77;;;6.50;;
15616;SDS011;7908;51.688;7.130;2023-05-10T02:00:43;10.83;;;6.77;;
15616;SDS011;7908;51.688;7.130;2023-05-10T02:03:15;10.27;;;6.47;;
15616;SDS011;7908;51.688;7.130;2023-05-10T02:05:46;10.20;;;6.47;;
15616;SDS011;7908;51.688;7.130;2023-05-10T02:08:17;9.20;;;6.43;;
15616;SDS011;7908;51.688;7.130;2023-05-10T02:10:46;10.87;;;6.50;;
15616;SDS011;7908;51.688;7.130;2023-05-10T02:13:16;9.90;;;6.80;;
15616;SDS011;7908;51.688;7.130;2023-05-10T02:15:48;9.37;;;6.20;;
15616;SDS011;7908;51.688;7.130;2023-05-10T02:18:19;10.53;;;6.20;;
15616;SDS011;7908;51.688;7.130;2023-05-10T02:20:49;8.53;;;6.37;;
15616;SDS011;7908;51.688;7.130;2023-05-10T02:23:20;9.60;;;6.20;;
15616;SDS011;7908;51.688;7.130;2023-05-10T02:25:49;10.70;;;5.67;;
15616;SDS011;7908;51.688;7.130;2023-05-10T02:28:20;12.33;;;5.80;;
15616;SDS011;7908;51.688;7.130;2023-05-10T02:30:49;8.83;;;5.37;;
15616;SDS011;7908;51.688;7.130;2023-05-10T02:33:21;8.00;;;4.90;;
15616;SDS011;7908;51.688;7.130;2023-05-10T02:35:51;7.50;;;4.83;;
15616;SDS011;7908;51.688;7.130;2023-05-10T02:38:20;8.43;;;5.30;;
15616;SDS011;7908;51.688;7.130;2023-05-10T02:40:51;8.30;;;5.00;;
15616;SDS011;7908;51.688;7.130;2023-05-10T02:43:21;12.13;;;6.07;;
15616;SDS011;7908;51.688;7.130;2023-05-10T02:45:52;14.30;;;6.90;;
15616;SDS011;7908;51.688;7.130;2023-05-10T02:48:22;15.63;;;8.17;;
15616;SDS011;7908;51.688;7.130;2023-05-10T02:50:51;16.40;;;9.50;;
15616;SDS011;7908;51.688;7.130;2023-05-10T02:53:22;23.33;;;11.53;;
15616;SDS011;7908;51.688;7.130;2023-05-10T02:56:01;26.20;;;13.20;;
15616;SDS011;7908;51.688;7.130;2023-05-10T02:58:36;31.80;;;14.20;;
15616;SDS011;7908;51.688;7.130;2023-05-10T03:01:04;38.03;;;16.67;;
15616;SDS011;7908;51.688;7.130;2023-05-10T03:03:35;24.87;;;11.70;;
15616;SDS011;7908;51.688;7.130;2023-05-10T03:06:04;22.83;;;11.60;;
15616;SDS011;7908;51.688;7.130;2023-05-10T03:08:33;24.67;;;12.37;;
15616;SDS011;7908;51.688;7.130;2023-05-10T03:13:56;28.83;;;13.30;;
15616;SDS011;7908;51.688;7.130;2023-05-10T03:16:37;24.83;;;12.23;;
15616;SDS011;7908;51.688;7.130;2023-05-10T03:19:16;28.23;;;13.27;;
15616;SDS011;7908;51.688;7.130;2023-05-10T03:21:50;32.10;;;14.30;;
15616;SDS011;7908;51.688;7.130;2023-05-10T03:24:21;35.73;;;15.80;;
15616;SDS011;7908;51.688;7.130;2023-05-10T03:26:51;46.33;;;17.83;;
15616;SDS011;7908;51.688;7.130;2023-05-10T03:29:23;50.40;;;19.70;;
15616;SDS011;7908;51.688;7.130;2023-05-10T03:31:54;44.67;;;18.10;;
15616;SDS011;7908;51.688;7.130;2023-05-10T03:34:24;44.13;;;17.50;;
15616;SDS011;7908;51.688;7.130;2023-05-10T03:36:53;46.77;;;19.23;;
15616;SDS011;7908;51.688;7.130;2023-05-10T03:39:21;48.77;;;20.33;;
15616;SDS011;7908;51.688;7.130;2023-05-10T03:41:51;59.80;;;22.60;;
15616;SDS011;7908;51.688;7.130;2023-05-10T03:44:19;58.40;;;23.00;;
15616;SDS011;7908;51.688;7.130;2023-05-10T03:46:48;72.23;;;25.33;;
15616;SDS011;7908;51.688;7.130;2023-05-10T03:49:17;59.67;;;22.87;;
15616;SDS011;7908;51.688;7.130;2023-05-10T03:51:47;63.27;;;24.93;;
15616;SDS011;7908;51.688;7.130;2023-05-10T03:54:16;66.20;;;24.87;;
15616;SDS011;7908;51.688;7.130;2023-05-10T03:56:44;69.23;;;25.73;;
15616;SDS011;7908;51.688;7.130;2023-05-10T03:59:14;73.17;;;26.03;;
15616;SDS011;7908;51.688;7.130;2023-05-10T04:01:43;67.57;;;25.97;;
15616;SDS011;7908;51.688;7.130;2023-05-10T04:04:11;62.80;;;24.07;;
15616;SDS011;7908;51.688;7.130;2023-05-10T04:06:40;62.67;;;25.10;;
15616;SDS011;7908;51.688;7.130;2023-05-10T04:09:10;65.87;;;27.00;;
15616;SDS011;7908;51.688;7.130;2023-05-10T04:11:38;77.40;;;26.90;;
15616;SDS011;7908;51.688;7.130;2023-05-10T04:14:07;76.57;;;28.10;;
15616;SDS011;7908;51.688;7.130;2023-05-10T04:16:36;75.43;;;28.10;;
15616;SDS011;7908;51.688;7.130;2023-05-10T04:19:05;65.93;;;26.37;;
15616;SDS011;7908;51.688;7.130;2023-05-10T04:21:33;88.77;;;31.17;;
15616;SDS011;7908;51.688;7.130;2023-05-10T04:24:02;104.07;;;33.50;;
15616;SDS011;7908;51.688;7.130;2023-05-10T04:26:33;91.00;;;32.30;;
15616;SDS011;7908;51.688;7.130;2023-05-10T04:29:01;113.80;;;35.70;;
15616;SDS011;7908;51.688;7.130;2023-05-10T04:31:31;98.30;;;34.03;;
15616;SDS011;7908;51.688;7.130;2023-05-10T04:34:01;95.97;;;32.97;;
15616;SDS011;7908;51.688;7.130;2023-05-10T04:36:29;103.47;;;32.30;;
15616;SDS011;7908;51.688;7.130;2023-05-10T04:38:58;100.07;;;34.40;;
15616;SDS011;7908;51.688;7.130;2023-05-10T04:41:27;95.47;;;32.83;;
15616;SDS011;7908;51.688;7.130;2023-05-10T04:43:57;97.13;;;33.70;;
15616;SDS011;7908;51.688;7.130;2023-05-10T04:46:26;105.20;;;36.53;;
15616;SDS011;7908;51.688;7.130;2023-05-10T04:48:54;103.33;;;37.67;;
15616;SDS011;7908;51.688;7.130;2023-05-10T04:51:23;123.67;;;41.10;;
15616;SDS011;7908;51.688;7.130;2023-05-10T04:53:52;113.03;;;40.53;;
15616;SDS011;7908;51.688;7.130;2023-05-10T04:56:31;126.53;;;41.77;;
15616;SDS011;7908;51.688;7.130;2023-05-10T04:59:02;148.73;;;45.23;;
15616;SDS011;7908;51.688;7.130;2023-05-10T05:01:30;149.93;;;45.00;;
15616;SDS011;7908;51.688;7.130;2023-05-10T05:03:59;136.50;;;45.90;;
15616;SDS011;7908;51.688;7.130;2023-05-10T05:06:27;135.33;;;45.57;;
15616;SDS011;7908;51.688;7.130;2023-05-10T05:08:56;138.37;;;46.73;;
15616;SDS011;7908;51.688;7.130;2023-05-10T05:11:25;142.13;;;45.57;;
15616;SDS011;7908;51.688;7.130;2023-05-10T05:13:53;140.60;;;47.27;;
15616;SDS011;7908;51.688;7.130;2023-05-10T05:16:24;128.40;;;45.10;;
15616;SDS011;7908;51.688;7.130;2023-05-10T05:18:53;128.03;;;46.47;;
15616;SDS011;7908;51.688;7.130;2023-05-10T05:21:22;122.77;;;43.03;;
15616;SDS011;7908;51.688;7.130;2023-05-10T05:23:53;133.20;;;46.80;;
15616;SDS011;7908;51.688;7.130;2023-05-10T05:26:21;159.80;;;48.30;;
15616;SDS011;7908;51.688;7.130;2023-05-10T05:28:50;155.83;;;47.17;;
15616;SDS011;7908;51.688;7.130;2023-05-10T05:31:21;118.37;;;42.40;;
15616;SDS011;7908;51.688;7.130;2023-05-10T05:33:51;125.23;;;43.83;;
15616;SDS011;7908;51.688;7.130;2023-05-10T05:36:19;126.60;;;44.30;;
15616;SDS011;7908;51.688;7.130;2023-05-10T05:38:48;129.37;;;43.70;;
15616;SDS011;7908;51.688;7.130;2023-05-10T05:41:16;113.37;;;40.93;;
15616;SDS011;7908;51.688;7.130;2023-05-10T05:43:45;116.40;;;41.30;;
15616;SDS011;7908;51.688;7.130;2023-05-10T05:46:14;133.13;;;44.50;;
15616;SDS011;7908;51.688;7.130;2023-05-10T05:48:43;114.23;;;42.23;;
15616;SDS011;7908;51.688;7.130;2023-05-10T05:51:13;139.07;;;45.80;;
15616;SDS011;7908;51.688;7.130;2023-05-10T05:53:41;151.30;;;47.37;;
15616;SDS011;7908;51.688;7.130;2023-05-10T05:56:10;121.47;;;46.57;;
15616;SDS011;7908;51.688;7.130;2023-05-10T05:58:39;147.20;;;47.93;;
15616;SDS011;7908;51.688;7.130;2023-05-10T06:01:07;142.37;;;47.93;;
15616;SDS011;7908;51.688;7.130;2023-05-10T06:03:36;137.23;;;46.83;;
15616;SDS011;7908;51.688;7.130;2023-05-10T06:06:05;117.43;;;43.33;;
15616;SDS011;7908;51.688;7.130;2023-05-10T06:08:35;117.03;;;44.47;;
15616;SDS011;7908;51.688;7.130;2023-05-10T06:11:04;109.33;;;41.77;;
15616;SDS011;7908;51.688;7.130;2023-05-10T06:13:32;119.43;;;42.73;;
15616;SDS011;7908;51.688;7.130;2023-05-10T06:16:02;136.23;;;45.03;;
15616;SDS011;7908;51.688;7.130;2023-05-10T06:18:31;139.33;;;45.90;;
15616;SDS011;7908;51.688;7.130;2023-05-10T06:21:00;118.80;;;43.53;;
15616;SDS011;7908;51.688;7.130;2023-05-10T06:23:28;133.23;;;45.83;;
15616;SDS011;7908;51.688;7.130;2023-05-10T06:25:58;127.87;;;45.23;;
15616;SDS011;7908;51.688;7.130;2023-05-10T06:28:27;123.87;;;43.90;;
15616;SDS011;7908;51.688;7.130;2023-05-10T06:30:57;121.80;;;44.93;;
15616;SDS011;7908;51.688;7.130;2023-05-10T06:33:26;132.37;;;46.93;;
15616;SDS011;7908;51.688;7.130;2023-05-10T06:35:55;124.37;;;45.70;;
15616;SDS011;7908;51.688;7.130;2023-05-10T06:38:23;139.83;;;47.30;;
15616;SDS011;7908;51.688;7.130;2023-05-10T06:40:52;122.23;;;45.83;;
15616;SDS011;7908;51.688;7.130;2023-05-10T06:43:22;110.93;;;45.13;;
15616;SDS011;7908;51.688;7.130;2023-05-10T06:45:51;102.07;;;43.17;;
15616;SDS011;7908;51.688;7.130;2023-05-10T06:48:19;117.27;;;45.63;;
15616;SDS011;7908;51.688;7.130;2023-05-10T06:50:48;114.77;;;45.63;;
15616;SDS011;7908;51.688;7.130;2023-05-10T06:53:17;89.73;;;42.40;;
15616;SDS011;7908;51.688;7.130;2023-05-10T06:55:46;100.07;;;43.50;;
15616;SDS011;7908;51.688;7.130;2023-05-10T06:58:14;87.30;;;39.63;;
15616;SDS011;7908;51.688;7.130;2023-05-10T07:00:44;86.33;;;40.50;;
15616;SDS011;7908;51.688;7.130;2023-05-10T07:03:13;81.80;;;39.40;;
15616;SDS011;7908;51.688;7.130;2023-05-10T07:05:42;74.50;;;38.77;;
15616;SDS011;7908;51.688;7.130;2023-05-10T07:08:11;74.37;;;39.67;;
15616;SDS011;7908;51.688;7.130;2023-05-10T07:10:39;69.03;;;37.03;;
15616;SDS011;7908;51.688;7.130;2023-05-10T07:13:08;60.23;;;35.63;;
15616;SDS011;7908;51.688;7.130;2023-05-10T07:15:37;64.50;;;36.87;;
15616;SDS011;7908;51.688;7.130;2023-05-10T07:18:07;64.73;;;37.07;;
15616;SDS011;7908;51.688;7.130;2023-05-10T07:20:36;58.30;;;34.87;;
15616;SDS011;7908;51.688;7.130;2023-05-10T07:23:05;58.33;;;34.30;;
15616;SDS011;7908;51.688;7.130;2023-05-10T07:25:33;49.20;;;31.87;;
15616;SDS011;7908;51.688;7.130;2023-05-10T07:28:02;46.90;;;31.80;;
15616;SDS011;7908;51.688;7.130;2023-05-10T07:30:32;47.20;;;30.87;;
15616;SDS011;7908;51.688;7.130;2023-05-10T07:33:00;40.93;;;29.43;;
15616;SDS011;7908;51.688;7.130;2023-05-10T07:35:31;43.50;;;30.07;;
15616;SDS011;7908;51.688;7.130;2023-05-10T07:38:00;40.23;;;30.50;;
15616;SDS011;7908;51.688;7.130;2023-05-10T07:40:29;41.20;;;31.03;;
15616;SDS011;7908;51.688;7.130;2023-05-10T07:42:58;43.37;;;30.43;;
15616;SDS011;7908;51.688;7.130;2023-05-10T07:45:28;38.60;;;28.90;;
15616;SDS011;7908;51.688;7.130;2023-05-10T07:47:56;39.70;;;28.77;;
15616;SDS011;7908;51.688;7.130;2023-05-10T07:50:25;40.17;;;28.00;;
15616;SDS011;7908;51.688;7.130;2023-05-10T07:52:55;32.87;;;26.37;;
15616;SDS011;7908;51.688;7.130;2023-05-10T07:55:24;36.80;;;27.80;;
15616;SDS011;7908;51.688;7.130;2023-05-10T07:57:53;35.97;;;26.50;;
15616;SDS011;7908;51.688;7.130;2023-05-10T08:00:21;33.57;;;25.00;;
15616;SDS011;7908;51.688;7.130;2023-05-10T08:02:50;39.17;;;26.57;;
15616;SDS011;7908;51.688;7.130;2023-05-10T08:05:19;34.77;;;24.63;;
15616;SDS011;7908;51.688;7.130;2023-05-10T08:07:48;33.20;;;25.13;;
15616;SDS011;7908;51.688;7.130;2023-05-10T08:10:18;34.80;;;24.50;;
15616;SDS011;7908;51.688;7.130;2023-05-10T08:12:47;32.93;;;23.70;;
15616;SDS011;7908;51.688;7.130;2023-05-10T08:15:16;29.93;;;23.03;;
15616;SDS011;7908;51.688;7.130;2023-05-10T08:17:45;32.53;;;24.23;;
15616;SDS011;7908;51.688;7.130;2023-05-10T08:20:14;32.13;;;23.40;;
15616;SDS011;7908;51.688;7.130;2023-05-10T08:22:43;32.10;;;23.83;;
15616;SDS011;7908;51.688;7.130;2023-05-10T08:25:13;33.67;;;23.70;;
15616;SDS011;7908;51.688;7.130;2023-05-10T08:27:44;35.33;;;24.47;;
15616;SDS011;7908;51.688;7.130;2023-05-10T08:30:13;34.10;;;23.90;;
15616;SDS011;7908;51.688;7.130;2023-05-10T08:32:41;31.00;;;23.17;;
15616;SDS011;7908;51.688;7.130;2023-05-10T08:35:10;34.73;;;25.83;;
15616;SDS011;7908;51.688;7.130;2023-05-10T08:37:39;35.67;;;24.87;;
15616;SDS011;7908;51.688;7.130;2023-05-10T08:40:08;31.97;;;23.90;;
15616;SDS011;7908;51.688;7.130;2023-05-10T08:42:39;34.67;;;24.47;;
15616;SDS011;7908;51.688;7.130;2023-05-10T08:45:12;32.23;;;24.53;;
15616;SDS011;7908;51.688;7.130;2023-05-10T08:47:43;29.67;;;23.00;;
15616;SDS011;7908;51.688;7.130;2023-05-10T08:50:12;28.47;;;22.53;;
15616;SDS011;7908;51.688;7.130;2023-05-10T08:52:42;33.30;;;24.80;;
15616;SDS011;7908;51.688;7.130;2023-05-10T08:55:14;30.43;;;23.47;;
15616;SDS011;7908;51.688;7.130;2023-05-10T08:57:44;33.23;;;24.43;;
15616;SDS011;7908;51.688;7.130;2023-05-10T09:00:15;32.00;;;24.57;;
15616;SDS011;7908;51.688;7.130;2023-05-10T09:02:44;31.20;;;23.93;;
15616;SDS011;7908;51.688;7.130;2023-05-10T09:05:13;31.27;;;22.50;;
15616;SDS011;7908;51.688;7.130;2023-05-10T09:07:45;29.40;;;22.50;;
15616;SDS011;7908;51.688;7.130;2023-05-10T09:10:13;30.00;;;22.17;;
15616;SDS011;7908;51.688;7.130;2023-05-10T09:12:42;28.40;;;21.30;;
15616;SDS011;7908;51.688;7.130;2023-05-10T09:15:14;27.20;;;20.33;;
15616;SDS011;7908;51.688;7.130;2023-05-10T09:17:46;27.67;;;20.57;;
15616;SDS011;7908;51.688;7.130;2023-05-10T09:20:16;28.90;;;20.67;;
15616;SDS011;7908;51.688;7.130;2023-05-10T09:22:45;25.70;;;18.33;;
15616;SDS011;7908;51.688;7.130;2023-05-10T09:25:14;28.37;;;19.63;;
15616;SDS011;7908;51.688;7.130;2023-05-10T09:27:45;24.53;;;18.00;;
15616;SDS011;7908;51.688;7.130;2023-05-10T09:30:16;28.27;;;18.70;;
15616;SDS011;7908;51.688;7.130;2023-05-10T09:32:51;23.73;;;17.70;;
15616;SDS011;7908;51.688;7.130;2023-05-10T09:35:20;25.83;;;17.60;;
15616;SDS011;7908;51.688;7.130;2023-05-10T09:37:55;24.23;;;17.50;;
15616;SDS011;7908;51.688;7.130;2023-05-10T09:40:26;23.20;;;16.43;;
15616;SDS011;7908;51.688;7.130;2023-05-10T09:42:56;25.63;;;17.33;;
15616;SDS011;7908;51.688;7.130;2023-05-10T09:45:28;20.77;;;15.77;;
15616;SDS011;7908;51.688;7.130;2023-05-10T09:47:58;23.57;;;17.17;;
15616;SDS011;7908;51.688;7.130;2023-05-10T09:50:28;23.33;;;17.43;;
15616;SDS011;7908;51.688;7.130;2023-05-10T09:52:58;25.87;;;17.83;;
15616;SDS011;7908;51.688;7.130;2023-05-10T09:55:39;23.50;;;16.80;;
15616;SDS011;7908;51.688;7.130;2023-05-10T09:58:11;24.50;;;17.53;;
15616;SDS011;7908;51.688;7.130;2023-05-10T10:00:42;21.87;;;15.80;;
15616;SDS011;7908;51.688;7.130;2023-05-10T10:03:14;24.80;;;17.23;;
15616;SDS011;7908;51.688;7.130;2023-05-10T10:05:44;27.73;;;19.10;;
15616;SDS011;7908;51.688;7.130;2023-05-10T10:08:14;26.90;;;19.27;;
15616;SDS011;7908;51.688;7.130;2023-05-10T10:10:43;28.80;;;17.90;;
15616;SDS011;7908;51.688;7.130;2023-05-10T10:13:13;24.97;;;18.20;;
15616;SDS011;7908;51.688;7.130;2023-05-10T10:15:45;27.80;;;18.53;;
15616;SDS011;7908;51.688;7.130;2023-05-10T10:18:17;28.00;;;19.10;;
15616;SDS011;7908;51.688;7.130;2023-05-10T10:20:50;30.07;;;18.37;;
15616;SDS011;7908;51.688;7.130;2023-05-10T10:23:19;25.53;;;18.33;;
15616;SDS011;7908;51.688;7.130;2023-05-10T10:25:47;23.67;;;16.53;;
15616;SDS011;7908;51.688;7.130;2023-05-10T10:28:22;24.50;;;16.50;;
15616;SDS011;7908;51.688;7.130;2023-05-10T10:31:02;26.23;;;17.70;;
15616;SDS011;7908;51.688;7.130;2023-05-10T10:33:56;29.67;;;18.23;;
15616;SDS011;7908;51.688;7.130;2023-05-10T10:36:28;27.07;;;18.60;;
15616;SDS011;7908;51.688;7.130;2023-05-10T10:38:58;26.20;;;18.63;;
15616;SDS011;7908;51.688;7.130;2023-05-10T10:41:29;27.43;;;17.83;;
15616;SDS011;7908;51.688;7.130;2023-05-10T14:35:39;14.93;;;12.43;;
15616;SDS011;7908;51.688;7.130;2023-05-10T14:38:10;13.20;;;11.80;;
15616;SDS011;7908;51.688;7.130;2023-05-10T14:40:41;14.73;;;12.20;;
15616;SDS011;7908;51.688;7.130;2023-05-10T14:43:11;15.53;;;12.07;;
15616;SDS011;7908;51.688;7.130;2023-05-10T14:45:47;14.87;;;11.07;;
15616;SDS011;7908;51.688;7.130;2023-05-10T14:48:15;15.80;;;10.53;;
15616;SDS011;7908;51.688;7.130;2023-05-10T14:50:51;13.97;;;10.50;;
15616;SDS011;7908;51.688;7.130;2023-05-10T14:56:44;12.02;;;9.00;;
15616;SDS011;7908;51.688;7.130;2023-05-10T14:59:15;10.45;;;8.35;;
15616;SDS011;7908;51.688;7.130;2023-05-10T15:01:48;11.77;;;8.03;;
15616;SDS011;7908;51.688;7.130;2023-05-10T15:04:17;10.50;;;7.90;;
15616;SDS011;7908;51.688;7.130;2023-05-10T15:06:56;10.30;;;8.52;;
15616;SDS011;7908;51.688;7.130;2023-05-10T15:09:26;10.53;;;8.43;;
15616;SDS011;7908;51.688;7.130;2023-05-10T15:11:55;10.43;;;7.90;;
15616;SDS011;7908;51.688;7.130;2023-05-10T15:14:26;10.15;;;7.22;;
15616;SDS011;7908;51.688;7.130;2023-05-10T15:16:58;11.20;;;7.32;;
15616;SDS011;7908;51.688;7.130;2023-05-10T15:19:31;8.38;;;7.18;;
15616;SDS011;7908;51.688;7.130;2023-05-10T15:22:04;10.18;;;7.60;;
15616;SDS011;7908;51.688;7.130;2023-05-10T15:24:33;10.82;;;8.07;;
15616;SDS011;7908;51.688;7.130;2023-05-10T15:27:02;8.80;;;6.10;;
15616;SDS011;7908;51.688;7.130;2023-05-10T15:29:33;6.30;;;5.40;;
15616;SDS011;7908;51.688;7.130;2023-05-10T15:32:03;7.60;;;5.60;;
15616;SDS011;7908;51.688;7.130;2023-05-10T15:34:32;7.45;;;6.15;;
15616;SDS011;7908;51.688;7.130;2023-05-10T15:37:04;8.05;;;6.40;;
15616;SDS011;7908;51.688;7.130;2023-05-10T15:39:34;9.63;;;6.25;;
15616;SDS011;7908;51.688;7.130;2023-05-10T15:42:04;7.82;;;6.05;;
15616;SDS011;7908;51.688;7.130;2023-05-10T15:44:33;7.45;;;5.88;;
15616;SDS011;7908;51.688;7.130;2023-05-10T15:47:05;9.95;;;7.47;;
15616;SDS011;7908;51.688;7.130;2023-05-10T15:49:34;6.10;;;5.50;;
15616;SDS011;7908;51.688;7.130;2023-05-10T15:52:05;10.27;;;6.65;;
15616;SDS011;7908;51.688;7.130;2023-05-10T15:54:33;14.13;;;6.30;;
15616;SDS011;7908;51.688;7.130;2023-05-10T15:57:03;9.05;;;6.50;;
15616;SDS011;7908;51.688;7.130;2023-05-10T15:59:33;10.20;;;7.07;;
15616;SDS011;7908;51.688;7.130;2023-05-10T16:02:02;7.68;;;6.20;;
15616;SDS011;7908;51.688;7.130;2023-05-10T16:04:33;6.88;;;6.18;;
15616;SDS011;7908;51.688;7.130;2023-05-10T16:07:02;6.05;;;5.38;;
15616;SDS011;7908;51.688;7.130;2023-05-10T16:09:33;7.20;;;4.40;;
15616;SDS011;7908;51.688;7.130;2023-05-10T16:12:02;5.53;;;4.55;;
15616;SDS011;7908;51.688;7.130;2023-05-10T16:14:32;4.97;;;4.13;;
15616;SDS011;7908;51.688;7.130;2023-05-10T16:17:01;6.13;;;4.55;;
15616;SDS011;7908;51.688;7.130;2023-05-10T16:19:31;7.78;;;5.30;;
15616;SDS011;7908;51.688;7.130;2023-05-10T16:22:03;7.25;;;5.50;;
15616;SDS011;7908;51.688;7.130;2023-05-10T16:24:34;8.15;;;5.40;;
15616;SDS011;7908;51.688;7.130;2023-05-10T16:27:04;6.00;;;5.40;;
15616;SDS011;7908;51.688;7.130;2023-05-10T16:29:34;6.45;;;5.43;;
15616;SDS011;7908;51.688;7.130;2023-05-10T16:32:04;9.50;;;6.53;;
15616;SDS011;7908;51.688;7.130;2023-05-10T16:34:34;8.43;;;6.30;;
15616;SDS011;7908;51.688;7.130;2023-05-10T16:37:03;7.63;;;6.23;;
15616;SDS011;7908;51.688;7.130;2023-05-10T16:39:36;10.70;;;8.07;;
15616;SDS011;7908;51.688;7.130;2023-05-10T16:42:05;13.03;;;7.83;;
15616;SDS011;7908;51.688;7.130;2023-05-10T16:44:35;10.70;;;7.13;;
15616;SDS011;7908;51.688;7.130;2023-05-10T16:47:05;8.40;;;6.30;;
15616;SDS011;7908;51.688;7.130;2023-05-10T16:49:34;8.77;;;5.97;;
15616;SDS011;7908;51.688;7.130;2023-05-10T16:52:03;8.67;;;7.07;;
15616;SDS011;7908;51.688;7.130;2023-05-10T16:54:33;8.33;;;6.90;;
15616;SDS011;7908;51.688;7.130;2023-05-10T16:57:06;8.87;;;6.30;;
15616;SDS011;7908;51.688;7.130;2023-05-10T16:59:34;8.57;;;7.10;;
15616;SDS011;7908;51.688;7.130;2023-05-10T17:02:04;11.17;;;6.80;;
15616;SDS011;7908;51.688;7.130;2023-05-10T17:04:33;11.33;;;7.40;;
15616;SDS011;7908;51.688;7.130;2023-05-10T17:07:03;11.83;;;7.60;;
15616;SDS011;7908;51.688;7.130;2023-05-10T17:09:33;7.57;;;6.70;;
15616;SDS011;7908;51.688;7.130;2023-05-10T17:12:03;7.63;;;6.30;;
15616;SDS011;7908;51.688;7.130;2023-05-10T17:14:32;7.53;;;6.80;;
15616;SDS011;7908;51.688;7.130;2023-05-10T17:17:07;8.27;;;6.60;;
15616;SDS011;7908;51.688;7.130;2023-05-10T17:19:37;10.03;;;7.13;;
15616;SDS011;7908;51.688;7.130;2023-05-10T17:22:06;8.60;;;5.67;;
15616;SDS011;7908;51.688;7.130;2023-05-10T17:24:39;8.10;;;5.83;;
15616;SDS011;7908;51.688;7.130;2023-05-10T17:27:12;10.20;;;6.33;;
15616;SDS011;7908;51.688;7.130;2023-05-10T17:29:41;8.80;;;5.90;;
15616;SDS011;7908;51.688;7.130;2023-05-10T17:32:10;7.40;;;6.13;;
15616;SDS011;7908;51.688;7.130;2023-05-10T17:34:43;7.83;;;6.00;;
15616;SDS011;7908;51.688;7.130;2023-05-10T17:37:12;8.03;;;6.97;;
15616;SDS011;7908;51.688;7.130;2023-05-10T17:39:43;10.43;;;8.10;;
15616;SDS011;7908;51.688;7.130;2023-05-10T17:42:15;10.90;;;7.10;;
15616;SDS011;7908;51.688;7.130;2023-05-10T17:44:46;9.63;;;7.30;;
15616;SDS011;7908;51.688;7.130;2023-05-10T17:47:16;8.27;;;7.00;;
15616;SDS011;7908;51.688;7.130;2023-05-10T17:49:46;10.17;;;7.77;;
15616;SDS011;7908;51.688;7.130;2023-05-10T17:52:20;9.77;;;7.37;;
15616;SDS011;7908;51.688;7.130;2023-05-10T17:54:58;11.37;;;7.17;;
15616;SDS011;7908;51.688;7.130;2023-05-10T17:57:34;10.70;;;7.93;;
15616;SDS011;7908;51.688;7.130;2023-05-10T18:00:06;8.47;;;7.27;;
15616;SDS011;7908;51.688;7.130;2023-05-10T18:02:44;8.80;;;6.73;;
15616;SDS011;7908;51.688;7.130;2023-05-10T18:05:20;8.53;;;5.93;;
15616;SDS011;7908;51.688;7.130;2023-05-10T18:07:50;5.57;;;4.70;;
15616;SDS011;7908;51.688;7.130;2023-05-10T18:10:23;6.10;;;4.60;;
15616;SDS011;7908;51.688;7.130;2023-05-10T18:12:54;6.10;;;4.00;;
15616;SDS011;7908;51.688;7.130;2023-05-10T18:15:24;4.70;;;3.47;;
15616;SDS011;7908;51.688;7.130;2023-05-10T18:18:02;4.57;;;3.50;;
15616;SDS011;7908;51.688;7.130;2023-05-10T18:20:34;4.50;;;3.80;;
15616;SDS011;7908;51.688;7.130;2023-05-10T18:23:04;5.73;;;4.10;;
15616;SDS011;7908;51.688;7.130;2023-05-10T18:25:33;5.97;;;4.53;;
15616;SDS011;7908;51.688;7.130;2023-05-10T18:28:15;7.80;;;5.13;;
15616;SDS011;7908;51.688;7.130;2023-05-10T18:30:49;5.77;;;4.60;;
15616;SDS011;7908;51.688;7.130;2023-05-10T18:33:20;6.17;;;4.93;;
15616;SDS011;7908;51.688;7.130;2023-05-10T18:36:04;8.27;;;5.10;;
15616;SDS011;7908;51.688;7.130;2023-05-10T18:38:47;7.23;;;5.57;;
15616;SDS011;7908;51.688;7.130;2023-05-10T18:41:19;6.33;;;4.97;;
15616;SDS011;7908;51.688;7.130;2023-05-10T18:43:50;8.57;;;5.50;;
15616;SDS011;7908;51.688;7.130;2023-05-10T18:46:24;9.43;;;5.90;;
15616;SDS011;7908;51.688;7.130;2023-05-10T18:49:05;8.80;;;6.43;;
15616;SDS011;7908;51.688;7.130;2023-05-10T18:51:47;8.47;;;5.93;;
15616;SDS011;7908;51.688;7.130;2023-05-10T18:54:17;9.03;;;6.57;;
15616;SDS011;7908;51.688;7.130;2023-05-10T18:56:47;9.47;;;6.20;;
15616;SDS011;7908;51.688;7.130;2023-05-10T18:59:35;10.53;;;7.63;;
15616;SDS011;7908;51.688;7.130;2023-05-10T19:02:13;9.17;;;6.90;;